Alburtis, Pennsylvania
Current Conditions -  °F | °C
As of 10:55 AM on Thursday 23 Oct 2014 (Local Time) from KXLL Reporting Station
Overcast Overcast  
Wind Chill: 50°   Ceiling: 4400
Heat Index: 50°   Visibility: 10mi
Dew Point: 43°   Wind: 14mph
Humidity: 76%   Direction: 340°NNW
Pressure: 29.83"   Gusts: 24mph
Location:  40.51°N, 75.6°W
Report Text: KXLL 231455Z AUTO 34012G21KT 10SM SCT021 BKN044 OVC060 10/06 A2983 RMK AO2
Loading
Personal Weather Stations






























Interactive Weather Map
Tropical Storm Tracking
New forecast layout! Learn more

10-Day Weather Forecast

Advertisements
Track Severe Weather on mobile